RJST(METAR)
02/18 15:00
METAR RJST 180600Z 32021G32KT 9999 FEW030 09/M07 Q1022 RMK 1CU030
A3021=
戻る
トップページへ戻る
IMOC Co,.Ltd.